Meteo Giornale » Osservazioni meteo Stati Uniti (USA) » Columbus
ore: 15:55 - Osservazioni Meteo Columbus
Lat. 33° 39' N Lon. 88° 27' W Alt. 67 metri s.l.m.
36 °C
Nuvoloso
Temp. 24 Ore
23 °C
36 °C
Nord
0 Km/h
Dew point 20 °C
Umidità 39 %
Visibilità 10 Km
Il sole sorge alle ore 06:27
Il sole tramonta alle ore 19:20
| Data e Ora | Cielo e Fenomeni | T °C | DP °C | Um. % | Pres. hPa | Vis. km | Vento km/h | |
|---|---|---|---|---|---|---|---|---|
| Oggi h: 15:55 | Nuvoloso | 36 | 20 | 39 | 1015 | 10 | N 0 | |
| Oggi h: 14:55 | Nuvoloso | 35 | 21 | 44 | 1016 | 10 | E 13 | |
| Oggi h: 13:55 | Nuvoloso | 36 | 22 | 44 | 1016 | 10 | E 9.3 | |
| Oggi h: 12:55 | Nuvoloso | 35 | 21 | 44 | 1017 | 10 | N 0 | |
| Oggi h: 11:55 | Nuvoloso | 33 | 22 | 52 | 1018 | 10 | N 0 | |
| Oggi h: 10:55 | Poco Nuvoloso | 32 | 23 | 59 | 1018 | 10 | N 0 | |
| Oggi h: 09:55 | Sereno | 31 | 23 | 62 | 1019 | 10 | N 0 | |
| Oggi h: 08:55 | Sereno | 29 | 23 | 70 | 1019 | 10 | S/SE 7.4 | |
| Oggi h: 07:55 | Sereno | 26 | 23 | 83 | 1018 | 10 | N 0 | |
| Oggi h: 06:55 | Sereno | 23 | 21 | 88 | 1017 | 10 | N 0 | |
| Oggi h: 06:05 | Sereno | 23 | 21 | 88 | 1017 | 10 | N 0 | |
| Oggi h: 05:55 | Sereno | 23 | 21 | 88 | 1017 | 10 | N 0 | |
| Oggi h: 04:55 | Sereno | 23 | 22 | 94 | 1016 | 10 | N 0 | |
| Oggi h: 03:55 | Sereno | 23 | 22 | 94 | 1016 | 10 | N 0 | |
| Oggi h: 02:55 | Sereno | 24 | 22 | 88 | 1016 | 10 | N 0 | |
| Oggi h: 01:55 | Sereno | 24 | 22 | 88 | 1016 | 10 | N 0 | |
| Oggi h: 00:55 | Sereno | 24 | 23 | 94 | 1016 | 10 | N 0 | |
| Ieri h: 23:55 | Sereno | 25 | 23 | 88 | 1016 | 10 | N 0 | |
| Ieri h: 22:55 | Sereno | 26 | 23 | 83 | 1016 | 10 | N 0 | |
| Ieri h: 21:55 | Sereno | 27 | 22 | 74 | 1016 | 10 | N 0 | |
| Ieri h: 20:55 | Sereno | 27 | 23 | 78 | 1016 | 10 | N 0 | |
| Ieri h: 19:55 | Sereno | 28 | 23 | 74 | 1015 | 10 | N 0 | |
| Ieri h: 18:55 | Sereno | 32 | 22 | 55 | 1015 | 10 | N 5.5 | |
| Ieri h: 17:55 | Sereno | 34 | 21 | 46 | 1015 | 10 | S 11.1 | |



